Terminal Aerodrome Forecast
Issued by NWS

Home | Current Version | Previous Version | Text Only | Print | Product List | Glossary On
Versions: 1 2 3 4 5 6 7 8 9 10 11 12 13 14 15 16 17
175
FTUS43 KICT 221749 AAD
TAFCNU
TAF AMD
KCNU 221749Z 2218/2318 18011G17KT P6SM SCT025 BKN035
     FM230200 16006KT P6SM FEW040 SCT200
     FM230600 20005KT P6SM VCSH BKN080 BKN200
     FM231000 36006KT P6SM VCSH BKN090
     FM231200 36010KT P6SM BKN030
     FM231600 01013KT P6SM BKN080
     FM231700 36014KT P6SM SCT140=

USA.gov is the U.S. government's official web portal to all federal, state and local government web resources and services.